MDT,Max TemperatureF,Mean TemperatureF,Min TemperatureF,Max Dew PointF,MeanDew PointF,Min DewpointF,Max Humidity, Mean Humidity, Min Humidity, Max Sea Level PressureIn, Mean Sea Level PressureIn, Min Sea Level PressureIn, Max VisibilityMiles, Mean VisibilityMiles, Min VisibilityMiles, Max Wind SpeedMPH, Mean Wind SpeedMPH, Max Gust SpeedMPH,PrecipitationIn, CloudCover, Events, WindDirDegrees
2013-4-1,57,42,26,28,21,12,80,47,21,30.20,30.08,29.96,10,10,6,21,5,33,0.00,5,,294
2013-4-2,51,38,26,30,22,9,81,57,18,30.10,30.02,29.94,10,10,2,22,4,25,0.00,4,,74
2013-4-3,53,42,32,30,23,10,87,55,18,30.29,30.18,30.09,10,10,9,16,5,22,0.00,4,,324
2013-4-4,59,40,21,25,19,12,86,47,17,30.37,30.28,30.19,10,10,10,15,2,20,0.00,0,,266
2013-4-5,55,40,26,34,24,19,86,54,25,30.23,30.11,29.98,10,10,9,23,4,45,0.00,3,,281
2013-4-6,55,40,26,32,23,10,93,55,17,30.13,30.07,30.00,10,10,10,20,4,26,0.00,2,,280
2013-4-7,53,42,32,32,26,19,87,56,26,30.09,29.97,29.88,10,10,5,24,7,36,0.01,6,,282
2013-4-8,57,44,30,34,26,16,80,58,20,29.90,29.65,29.51,10,10,9,28,8,41,0.00,3,,93
2013-4-9,39,29,19,30,23,12,93,74,52,29.91,29.65,29.52,10,6,0,48,11,88,0.06,7,,150
2013-4-10,30,21,12,19,13,5,86,68,55,30.04,29.97,29.92,10,9,2,18,7,28,0.00,3,,231
2013-4-11,44,32,21,30,23,14,86,65,42,30.00,29.96,29.92,10,10,7,17,6,22,0.00,4,,289
2013-4-12,48,37,26,28,22,16,93,58,27,30.06,30.01,29.98,10,10,10,17,4,26,0.00,5,,339
2013-4-13,55,38,21,28,19,12,86,52,19,30.06,29.87,29.61,10,10,8,29,4,56,0.00,3,,247
2013-4-14,46,39,32,34,23,16,87,57,31,29.81,29.74,29.63,10,9,2,24,11,32,0.22,3,,266
2013-4-15,51,42,32,30,27,21,81,60,38,29.76,29.69,29.65,10,10,10,21,7,30,0.00,5,,258
2013-4-16,60,44,28,28,20,10,86,46,14,29.79,29.71,29.61,10,9,3,32,9,41,0.00,1,,216
2013-4-17,44,32,21,28,20,10,81,64,31,29.97,29.80,29.68,10,10,1,22,8,32,0.00,5,,232
2013-4-18,30,22,15,10,5,-2,73,50,29,30.29,30.09,29.98,10,10,10,18,13,24,0.00,4,,269
2013-4-19,44,29,14,18,10,3,73,45,27,30.31,30.20,30.10,10,10,10,21,6,29,0.00,1,,282
2013-4-20,46,36,26,30,25,19,87,66,34,30.17,30.07,30.01,10,10,2,16,5,21,0.03,6,,336
2013-4-21,53,38,24,30,22,12,93,59,19,30.25,30.18,30.11,10,10,2,20,4,28,0.00,3,,345
2013-4-22,57,46,35,34,25,14,87,51,20,30.14,30.02,29.92,10,10,10,24,8,32,0.00,5,,264
2013-4-23,42,34,24,25,17,9,86,51,28,30.19,30.04,29.96,10,9,1,22,9,29,0.01,4,,276
2013-4-24,46,34,21,12,8,1,68,37,17,30.27,30.22,30.17,10,10,10,21,6,28,0.00,2,,304
2013-4-25,60,42,23,25,17,10,74,43,17,30.26,30.16,30.05,10,10,5,22,3,33,0.00,1,,213
2013-4-26,59,42,24,21,16,9,74,40,14,30.38,30.26,30.15,10,10,10,15,4,21,0.00,1,,281
2013-4-27,62,43,24,21,15,10,74,37,14,30.44,30.35,30.25,10,10,9,14,2,17,0.00,0,,254
2013-4-28,66,45,24,21,17,12,74,34,14,30.32,30.21,30.10,10,10,10,20,4,26,0.00,0,,263
2013-4-29,68,48,28,27,20,12,69,35,15,30.15,30.04,29.93,10,10,10,23,5,34,0.00,0,,276
2013-4-30,69,48,28,27,18,10,69,32,13,29.96,29.89,29.83,10,10,9,30,7,44,0.00,1,,233